Time;durP1;ratioP1;P1;durP2;ratioP2;P2;SDS_P1;SDS_P2;PMS_P1;PMS_P2;Temp;Humidity;BMP_temperature;BMP_pressure;BME280_temperature;BME280_humidity;BME280_pressure;Samples;Min_cycle;Max_cycle;Signal;HPM_P1;HPM_P2
2022/08/09 00:00:10;;;;;;;3.78;1.42;;;;;;;17.64;61.80;96799.81;5087287;28;20032;-76
2022/08/09 00:02:36;;;;;;;4.72;1.40;;;;;;;17.59;62.42;96800.34;5086552;28;20042;-75
2022/08/09 00:05:04;;;;;;;3.13;1.58;;;;;;;17.53;62.89;96801.13;5086555;28;20039;-76
2022/08/09 00:07:29;;;;;;;1.98;1.20;;;;;;;17.52;63.69;96802.13;5086651;28;20476;-76
2022/08/09 00:09:55;;;;;;;2.85;1.15;;;;;;;17.38;65.20;96797.69;5085701;28;20135;-76
2022/08/09 00:12:21;;;;;;;4.38;1.50;;;;;;;17.32;66.34;96801.09;5084587;28;20070;-76
2022/08/09 00:14:46;;;;;;;2.03;1.38;;;;;;;17.30;67.21;96803.94;5088300;28;20119;-76
2022/08/09 00:17:12;;;;;;;4.30;1.80;;;;;;;17.13;68.78;96805.97;5086718;28;20123;-75
2022/08/09 00:19:38;;;;;;;2.90;1.30;;;;;;;17.11;69.44;96801.88;5086085;28;20499;-76
2022/08/09 00:22:04;;;;;;;1.67;1.57;;;;;;;16.98;70.81;96805.19;5087530;28;20091;-75
2022/08/09 00:24:30;;;;;;;3.40;1.30;;;;;;;16.93;71.49;96819.06;5083354;28;20363;-75
2022/08/09 00:26:57;;;;;;;3.33;1.40;;;;;;;16.77;73.92;96810.44;5082495;28;20035;-76
2022/08/09 00:29:27;;;;;;;2.83;1.50;;;;;;;16.80;74.51;96810.91;5080801;28;20058;-75
2022/08/09 00:31:53;;;;;;;2.60;1.50;;;;;;;16.81;76.14;96809.88;5087422;28;20043;-76
2022/08/09 00:34:19;;;;;;;3.43;1.80;;;;;;;16.75;77.07;96805.31;5090205;28;20089;-76
2022/08/09 00:36:45;;;;;;;2.63;1.70;;;;;;;16.73;78.10;96802.81;5086877;28;20034;-75
2022/08/09 00:39:10;;;;;;;3.10;1.67;;;;;;;16.79;78.74;96806.59;5085790;28;20023;-75
2022/08/09 00:41:37;;;;;;;4.33;1.83;;;;;;;16.57;81.29;96808.31;5081848;28;20055;-75
2022/08/09 00:44:03;;;;;;;5.20;1.70;;;;;;;16.58;82.39;96803.81;5081717;28;20126;-75
2022/08/09 00:46:29;;;;;;;3.83;1.50;;;;;;;16.50;83.54;96807.41;5067500;28;20649;-75
2022/08/09 00:48:55;;;;;;;6.10;1.67;;;;;;;16.58;83.66;96806.47;5093635;28;20032;-75
2022/08/09 00:51:20;;;;;;;4.07;1.70;;;;;;;16.40;85.10;96818.28;5086844;28;20781;-76
2022/08/09 00:53:47;;;;;;;3.20;1.53;;;;;;;16.47;85.36;96808.56;5086035;28;20044;-75
2022/08/09 00:56:14;;;;;;;4.07;1.80;;;;;;;16.36;86.23;96821.44;5084835;28;20028;-75
2022/08/09 00:58:39;;;;;;;2.50;1.70;;;;;;;16.27;87.57;96826.84;5085614;28;20046;-75
2022/08/09 01:01:19;;;;;;;3.10;1.67;;;;;;;16.02;90.06;96833.38;5076634;28;20119;-75
2022/08/09 01:04:00;;;;;;;3.07;1.80;;;;;;;15.97;90.60;96828.59;5086420;28;20177;-75
2022/08/09 01:06:39;;;;;;;3.13;1.83;;;;;;;16.07;89.46;96820.41;5079819;28;20032;-75
2022/08/09 01:09:23;;;;;;;2.83;1.83;;;;;;;16.20;89.10;96814.50;5085709;28;20370;-75
2022/08/09 01:12:06;;;;;;;2.93;1.70;;;;;;;16.07;89.60;96825.72;5085765;28;20035;-75
2022/08/09 01:14:54;;;;;;;3.37;1.80;;;;;;;16.10;89.64;96828.00;5082631;28;20063;-75
2022/08/09 01:17:29;;;;;;;3.87;1.87;;;;;;;16.17;89.37;96820.97;5085110;28;20504;-76
2022/08/09 01:20:25;;;;;;;4.80;1.77;;;;;;;16.26;88.47;96813.75;5084148;28;20028;-75
2022/08/09 01:23:06;;;;;;;3.47;1.80;;;;;;;16.21;88.98;96809.00;5087225;28;20040;-75
2022/08/09 01:25:53;;;;;;;3.30;2.00;;;;;;;16.24;88.71;96819.25;5085813;28;20102;-75
2022/08/09 01:28:22;;;;;;;3.37;1.93;;;;;;;16.09;90.09;96820.22;5082790;28;20047;-76
2022/08/09 01:30:50;;;;;;;6.17;2.00;;;;;;;16.16;89.71;96821.16;5086371;28;20023;-75
2022/08/09 01:33:18;;;;;;;4.73;2.43;;;;;;;16.15;89.50;96822.97;5084659;28;20138;-75
2022/08/09 01:35:55;;;;;;;5.03;2.03;;;;;;;16.14;90.10;96818.69;5089311;28;20515;-75
2022/08/09 01:38:27;;;;;;;2.57;1.60;;;;;;;16.24;89.67;96824.56;5091987;28;20028;-74
2022/08/09 01:41:05;;;;;;;5.47;1.90;;;;;;;16.24;89.55;96816.59;5090838;28;20074;-75
2022/08/09 01:43:37;;;;;;;2.87;1.60;;;;;;;16.33;89.56;96817.34;5088593;28;20035;-75
2022/08/09 01:46:04;;;;;;;3.40;1.80;;;;;;;16.24;89.64;96821.91;5080376;28;20043;-75
2022/08/09 01:48:33;;;;;;;6.83;1.97;;;;;;;16.11;92.93;96812.91;5082187;28;20032;-75
2022/08/09 01:51:00;;;;;;;5.00;2.10;;;;;;;16.25;91.45;96815.59;5089473;28;20105;-75
2022/08/09 01:53:28;;;;;;;4.47;1.70;;;;;;;16.29;91.21;96824.00;5089022;28;20366;-75
2022/08/09 01:55:55;;;;;;;3.10;1.77;;;;;;;16.24;90.80;96813.94;5083242;28;20043;-75
2022/08/09 01:58:21;;;;;;;4.27;1.97;;;;;;;16.22;90.56;96821.25;5085496;28;20786;-75
2022/08/09 02:00:48;;;;;;;3.83;1.60;;;;;;;16.05;92.46;96822.41;5080500;28;20070;-76
2022/08/09 02:03:17;;;;;;;4.10;2.10;;;;;;;15.92;93.07;96817.69;5092471;28;20074;-74
2022/08/09 02:05:44;;;;;;;6.67;1.90;;;;;;;15.97;93.05;96818.00;5092221;28;20028;-74
2022/08/09 02:08:15;;;;;;;4.80;1.77;;;;;;;15.95;93.45;96825.31;5092268;28;20063;-74
2022/08/09 02:10:44;;;;;;;3.73;1.93;;;;;;;15.97;93.77;96822.50;5091638;28;20040;-74
2022/08/09 02:13:11;;;;;;;2.93;1.67;;;;;;;15.90;94.27;96822.38;5090362;28;20055;-73
2022/08/09 02:15:48;;;;;;;6.37;2.30;;;;;;;15.88;94.78;96818.25;5070684;28;20028;-74
2022/08/09 02:18:20;;;;;;;2.87;1.80;;;;;;;15.90;94.77;96818.91;5068873;28;20029;-74
2022/08/09 02:20:53;;;;;;;3.95;2.10;;;;;;;15.84;96.48;96820.44;5092240;28;20028;-74
2022/08/09 02:23:23;;;;;;;6.88;2.40;;;;;;;15.87;96.78;96822.72;5089936;28;20393;-74
2022/08/09 02:25:51;;;;;;;3.07;1.90;;;;;;;15.90;96.42;96821.56;5084662;28;20029;-74
2022/08/09 02:28:42;;;;;;;4.13;2.03;;;;;;;15.96;95.86;96826.97;5089147;28;20111;-74
2022/08/09 02:31:17;;;;;;;2.93;2.00;;;;;;;15.97;95.73;96823.31;5089752;28;20051;-74
2022/08/09 02:33:46;;;;;;;5.03;2.33;;;;;;;15.85;97.14;96826.56;5090293;28;20039;-74
2022/08/09 02:36:22;;;;;;;2.93;2.17;;;;;;;15.75;97.99;96821.47;5078670;28;20389;-75
2022/08/09 02:38:55;;;;;;;4.30;2.23;;;;;;;15.74;97.90;96828.63;5082648;28;20655;-74
2022/08/09 02:41:31;;;;;;;4.40;2.35;;;;;;;15.70;97.55;96831.81;5091343;28;20410;-74
2022/08/09 02:44:03;;;;;;;4.20;2.07;;;;;;;15.79;96.92;96830.72;5082417;28;20122;-75
2022/08/09 02:46:32;;;;;;;3.97;1.93;;;;;;;15.64;97.73;96832.47;5089980;28;20023;-74
2022/08/09 02:49:02;;;;;;;2.73;1.70;;;;;;;15.75;96.42;96834.75;5091648;28;20016;-74
2022/08/09 02:51:31;;;;;;;7.07;2.23;;;;;;;15.77;96.45;96827.44;5084265;28;20474;-74
2022/08/09 02:53:59;;;;;;;4.43;2.03;;;;;;;15.78;95.84;96824.59;5090345;28;20027;-74
2022/08/09 02:56:26;;;;;;;4.10;1.90;;;;;;;15.69;96.64;96820.38;5088808;28;20493;-74
2022/08/09 02:58:54;;;;;;;3.43;2.10;;;;;;;15.67;96.50;96826.84;5090017;28;20040;-74
2022/08/09 03:01:20;;;;;;;4.50;1.97;;;;;;;15.66;96.51;96811.91;5069012;28;20034;-74
2022/08/09 03:03:47;;;;;;;3.17;2.10;;;;;;;15.60;97.30;96816.09;5088137;28;20520;-74
2022/08/09 03:06:14;;;;;;;5.10;2.47;;;;;;;15.50;97.24;96815.50;5087116;28;20035;-74
2022/08/09 03:08:45;;;;;;;2.63;1.90;;;;;;;15.44;97.93;96814.38;5089450;28;20032;-74
2022/08/09 03:11:17;;;;;;;3.03;1.87;;;;;;;15.48;97.71;96820.16;5077057;28;20024;-74
2022/08/09 03:13:45;;;;;;;4.00;2.20;;;;;;;15.38;98.03;96822.19;5087964;28;20035;-74
2022/08/09 03:16:12;;;;;;;4.30;2.30;;;;;;;15.38;98.09;96822.19;5086806;28;20028;-74
2022/08/09 03:18:39;;;;;;;3.80;2.10;;;;;;;15.29;98.81;96824.91;5066674;28;20025;-74
2022/08/09 03:21:06;;;;;;;3.43;2.13;;;;;;;15.29;98.86;96818.75;5086558;28;20032;-74
2022/08/09 03:23:33;;;;;;;4.37;2.00;;;;;;;15.26;99.24;96819.97;5086450;28;20035;-74
2022/08/09 03:26:00;;;;;;;5.27;2.17;;;;;;;15.17;99.31;96821.00;5085957;28;20124;-74
2022/08/09 03:28:26;;;;;;;5.87;2.27;;;;;;;15.10;99.33;96812.09;5064279;28;20096;-74
2022/08/09 03:30:54;;;;;;;4.13;2.17;;;;;;;15.13;98.98;96821.53;5087498;28;20031;-75
2022/08/09 03:33:20;;;;;;;4.63;2.23;;;;;;;15.08;98.53;96820.19;5086713;28;20032;-75
2022/08/09 03:35:50;;;;;;;3.50;2.20;;;;;;;15.11;98.21;96820.84;5082617;28;20028;-74
2022/08/09 03:38:16;;;;;;;3.80;2.00;;;;;;;15.08;97.95;96820.19;5080530;28;20036;-74
2022/08/09 03:40:42;;;;;;;5.43;2.37;;;;;;;15.12;97.27;96822.50;5088958;28;20431;-75
2022/08/09 03:43:08;;;;;;;4.53;2.40;;;;;;;14.98;98.17;96826.69;5068412;28;20036;-75
2022/08/09 03:45:35;;;;;;;4.70;2.33;;;;;;;14.90;98.58;96830.22;5086331;28;20036;-75
2022/08/09 03:48:03;;;;;;;2.87;1.57;;;;;;;14.86;98.59;96831.56;5088385;28;20507;-75
2022/08/09 03:50:30;;;;;;;4.03;2.10;;;;;;;14.79;99.50;96836.72;5086271;28;20036;-75
2022/08/09 03:53:00;;;;;;;3.17;1.90;;;;;;;14.78;99.63;96832.41;5070014;28;20031;-75
2022/08/09 03:55:26;;;;;;;4.50;2.20;;;;;;;14.75;99.85;96826.63;5088068;28;20043;-75
2022/08/09 03:57:52;;;;;;;8.47;2.40;;;;;;;14.72;99.99;96838.41;5079257;28;20124;-75
2022/08/09 04:00:19;;;;;;;5.57;2.30;;;;;;;14.66;100.00;96839.06;5088084;28;20103;-75
2022/08/09 04:02:46;;;;;;;6.80;2.43;;;;;;;14.59;100.00;96849.50;5087835;28;20772;-75
2022/08/09 04:05:12;;;;;;;5.60;2.10;;;;;;;14.62;100.00;96851.00;5089372;28;20024;-75
2022/08/09 04:07:38;;;;;;;4.73;2.00;;;;;;;14.72;99.75;96849.00;5088931;28;20471;-74
2022/08/09 04:10:04;;;;;;;5.87;2.17;;;;;;;14.68;100.00;96860.88;5095624;28;20097;-74
2022/08/09 04:12:58;;;;;;;3.33;2.10;;;;;;;14.77;99.54;96857.22;5093056;28;20043;-75
2022/08/09 04:15:24;;;;;;;6.53;2.00;;;;;;;14.83;99.20;96859.22;5084200;28;20054;-76
2022/08/09 04:17:49;;;;;;;5.10;2.37;;;;;;;14.90;98.66;96855.88;5078555;28;20024;-75
2022/08/09 04:20:16;;;;;;;5.97;2.20;;;;;;;14.87;98.48;96858.88;5086435;28;20935;-75
2022/08/09 04:22:44;;;;;;;14.07;3.43;;;;;;;14.81;99.90;96858.53;5083313;28;20066;-75
2022/08/09 04:25:10;;;;;;;3.83;2.03;;;;;;;14.85;98.71;96862.53;5087256;28;20744;-75
2022/08/09 04:27:40;;;;;;;5.40;2.17;;;;;;;14.84;99.33;96863.50;5081630;28;20454;-75
2022/08/09 04:30:15;;;;;;;5.67;2.43;;;;;;;14.81;99.52;96858.53;5083893;28;20729;-75
2022/08/09 04:32:41;;;;;;;5.47;2.37;;;;;;;14.88;100.00;96863.16;5079130;28;20082;-75
2022/08/09 04:35:09;;;;;;;6.00;2.83;;;;;;;14.82;100.00;96865.50;5086205;28;20032;-74
2022/08/09 04:37:36;;;;;;;5.50;2.60;;;;;;;14.86;100.00;96871.28;5081539;28;20028;-74
2022/08/09 04:40:02;;;;;;;5.87;2.57;;;;;;;14.90;100.00;96866.47;5087164;28;20081;-74
2022/08/09 04:42:29;;;;;;;5.03;2.77;;;;;;;15.02;99.75;96870.38;5086730;28;20059;-74
2022/08/09 04:44:56;;;;;;;5.40;2.97;;;;;;;14.96;100.00;96871.09;5086725;28;20031;-74
2022/08/09 04:47:23;;;;;;;6.50;2.53;;;;;;;15.08;99.90;96880.31;5076375;28;20046;-75
2022/08/09 04:49:50;;;;;;;4.67;2.40;;;;;;;15.13;99.65;96888.56;5080447;28;20115;-74
2022/08/09 04:52:16;;;;;;;7.50;2.87;;;;;;;15.20;99.04;96881.59;5081504;28;20024;-75
2022/08/09 04:54:41;;;;;;;6.70;2.57;;;;;;;15.16;98.62;96884.75;5085705;28;20044;-74
2022/08/09 04:57:07;;;;;;;4.50;2.73;;;;;;;15.21;99.30;96885.88;5079003;28;20073;-75
2022/08/09 04:59:33;;;;;;;4.23;2.47;;;;;;;15.24;99.04;96885.53;5066377;28;20050;-75
2022/08/09 05:01:59;;;;;;;4.17;2.30;;;;;;;15.41;97.16;96896.06;5087212;28;20816;-75
2022/08/09 05:04:24;;;;;;;4.27;2.37;;;;;;;15.56;96.69;96894.34;5086670;28;20059;-75
2022/08/09 05:06:50;;;;;;;4.77;2.33;;;;;;;15.70;95.29;96896.28;5073320;28;20029;-75
2022/08/09 05:09:16;;;;;;;7.20;2.27;;;;;;;15.75;95.55;96896.56;5086426;28;20058;-74
2022/08/09 05:11:41;;;;;;;4.27;2.20;;;;;;;15.88;94.59;96900.47;5082975;28;20040;-75
2022/08/09 05:14:07;;;;;;;5.30;2.27;;;;;;;15.91;93.45;96902.78;5085227;28;20055;-76
2022/08/09 05:16:34;;;;;;;3.73;2.00;;;;;;;16.11;92.21;96903.94;5086294;28;20077;-75
2022/08/09 05:18:59;;;;;;;5.93;2.50;;;;;;;16.12;90.72;96908.25;5086989;28;20035;-75
2022/08/09 05:21:26;;;;;;;5.07;2.10;;;;;;;16.25;90.50;96905.81;5083694;28;20032;-75
2022/08/09 05:23:52;;;;;;;5.03;1.90;;;;;;;16.57;88.26;96908.38;5086444;28;20032;-75
2022/08/09 05:26:18;;;;;;;4.23;2.03;;;;;;;16.50;86.92;96911.75;5085513;28;20027;-75
2022/08/09 05:28:43;;;;;;;2.97;1.70;;;;;;;16.67;86.85;96916.94;5077552;28;20428;-75
2022/08/09 05:31:09;;;;;;;6.03;1.83;;;;;;;16.94;83.82;96911.03;5082411;28;20028;-75
2022/08/09 05:33:35;;;;;;;3.97;1.70;;;;;;;17.25;82.39;96909.19;5082977;28;20036;-75
2022/08/09 05:36:02;;;;;;;3.70;1.60;;;;;;;17.13;81.42;96908.81;5085524;28;20028;-75
2022/08/09 05:38:29;;;;;;;3.93;2.00;;;;;;;17.33;81.33;96911.72;5085184;28;20123;-75
2022/08/09 05:40:55;;;;;;;4.10;1.90;;;;;;;17.78;78.30;96912.53;5086383;28;20043;-75
2022/08/09 05:43:20;;;;;;;4.10;2.20;;;;;;;17.85;77.25;96916.09;5086468;28;20023;-75
2022/08/09 05:45:46;;;;;;;5.33;1.70;;;;;;;18.00;76.56;96914.19;5083868;28;20396;-75
2022/08/09 05:48:12;;;;;;;5.00;2.27;;;;;;;18.06;75.92;96916.09;5087426;28;20032;-75
2022/08/09 05:50:40;;;;;;;5.10;2.63;;;;;;;17.96;77.30;96915.56;5084579;28;20058;-75
2022/08/09 05:53:06;;;;;;;5.30;1.92;;;;;;;18.17;76.25;96912.09;5083392;28;20047;-75
2022/08/09 05:55:32;;;;;;;6.22;1.85;;;;;;;18.66;73.16;96918.47;5081036;28;20044;-75
2022/08/09 05:57:58;;;;;;;3.78;1.98;;;;;;;18.57;74.31;96917.78;5083580;28;20068;-75
2022/08/09 06:00:26;;;;;;;5.10;2.10;;;;;;;18.61;73.38;96919.88;5086457;28;20028;-75
2022/08/09 06:02:54;;;;;;;4.22;2.40;;;;;;;19.05;70.52;96921.44;5084885;28;20475;-75
2022/08/09 06:05:19;;;;;;;3.28;1.92;;;;;;;19.37;69.24;96919.13;5085267;28;20546;-75
2022/08/09 06:07:45;;;;;;;6.93;2.45;;;;;;;19.34;70.79;96921.38;5085638;28;20131;-75
2022/08/09 06:10:14;;;;;;;6.75;2.25;;;;;;;18.93;72.93;96922.16;5088425;28;20493;-76
2022/08/09 06:12:41;;;;;;;3.75;1.83;;;;;;;19.62;69.15;96924.81;5082009;28;20036;-75
2022/08/09 06:15:07;;;;;;;3.33;1.92;;;;;;;20.34;64.12;96923.38;5070656;28;20091;-75
2022/08/09 06:17:33;;;;;;;6.97;2.10;;;;;;;20.18;64.97;96926.41;5066918;28;20032;-75
2022/08/09 06:19:59;;;;;;;10.40;1.80;;;;;;;19.89;67.25;96928.41;5089351;28;20449;-75
2022/08/09 06:22:25;;;;;;;6.45;1.88;;;;;;;20.17;65.21;96925.59;5086040;28;20070;-75
2022/08/09 06:24:50;;;;;;;4.28;2.03;;;;;;;20.96;62.23;96924.03;5068334;28;20032;-75
2022/08/09 06:27:16;;;;;;;10.20;1.98;;;;;;;20.94;61.00;96931.41;5085873;28;20802;-75
2022/08/09 06:29:43;;;;;;;3.17;1.70;;;;;;;21.12;60.87;96934.25;5086632;28;20047;-75
2022/08/09 06:32:08;;;;;;;4.03;1.70;;;;;;;21.24;60.42;96931.78;5082308;28;20040;-75
2022/08/09 06:34:35;;;;;;;3.45;1.77;;;;;;;21.15;61.40;96939.19;5083938;28;20036;-74
2022/08/09 06:37:00;;;;;;;4.78;1.80;;;;;;;21.35;60.16;96933.81;5087931;28;20539;-75
2022/08/09 06:39:28;;;;;;;7.47;2.25;;;;;;;21.63;59.86;96936.22;5088667;28;20102;-76
2022/08/09 06:41:54;;;;;;;6.40;2.30;;;;;;;22.18;56.27;96943.81;5083172;28;20078;-75
2022/08/09 06:44:20;;;;;;;4.80;1.77;;;;;;;22.24;56.83;96947.50;5029125;28;20136;-75
2022/08/09 06:46:47;;;;;;;4.20;1.95;;;;;;;22.20;57.35;96936.38;5027677;28;20988;-76
2022/08/09 06:49:13;;;;;;;4.68;2.00;;;;;;;21.98;57.96;96948.41;5018383;28;20814;-75
2022/08/09 06:51:39;;;;;;;3.35;1.95;;;;;;;21.95;58.69;96946.97;5017853;28;20036;-75
2022/08/09 06:54:04;;;;;;;5.63;2.20;;;;;;;22.79;55.12;96937.78;5017275;28;21283;-75
2022/08/09 06:56:30;;;;;;;7.53;2.20;;;;;;;22.57;56.85;96952.63;5020033;28;21352;-75
2022/08/09 06:58:56;;;;;;;2.45;1.75;;;;;;;22.41;57.18;96953.16;5018856;28;20112;-75
2022/08/09 07:01:22;;;;;;;5.88;1.95;;;;;;;22.56;55.53;96950.97;5025022;28;20119;-75
2022/08/09 07:03:47;;;;;;;3.15;1.85;;;;;;;23.06;54.01;96951.00;5020720;28;20473;-75
2022/08/09 07:06:13;;;;;;;3.35;1.90;;;;;;;23.04;53.58;96953.09;4998967;28;20080;-76
2022/08/09 07:08:39;;;;;;;4.35;2.25;;;;;;;23.07;52.98;96949.94;4988396;28;20159;-75
2022/08/09 07:11:04;;;;;;;4.65;1.90;;;;;;;23.56;51.96;96953.59;4988449;28;21072;-76
2022/08/09 07:13:30;;;;;;;10.10;1.75;;;;;;;23.90;51.22;96945.97;5028946;28;20028;-75
2022/08/09 07:15:56;;;;;;;3.33;1.67;;;;;;;24.58;49.61;96942.13;5067792;28;20111;-75
2022/08/09 07:18:22;;;;;;;5.50;1.70;;;;;;;23.85;50.43;96943.97;5075015;28;20043;-75
2022/08/09 07:20:49;;;;;;;3.80;1.80;;;;;;;24.84;46.72;96933.66;5083065;28;20024;-75
2022/08/09 07:23:16;;;;;;;4.07;1.60;;;;;;;24.42;47.43;96941.78;5083114;28;20947;-76
2022/08/09 07:25:42;;;;;;;4.65;1.80;;;;;;;24.89;46.54;96932.97;5082373;28;20036;-76
2022/08/09 07:28:10;;;;;;;3.17;1.65;;;;;;;25.31;44.63;96936.38;5082320;28;20036;-76
2022/08/09 07:30:37;;;;;;;4.28;1.75;;;;;;;24.56;47.08;96942.38;5066033;28;20028;-75
2022/08/09 07:33:03;;;;;;;5.82;1.95;;;;;;;25.29;45.45;96938.50;5083093;28;20024;-76
2022/08/09 07:35:28;;;;;;;4.25;1.67;;;;;;;25.50;44.46;96937.06;5084413;28;20043;-76
2022/08/09 07:37:54;;;;;;;2.28;1.45;;;;;;;25.81;43.12;96933.13;5086884;28;20032;-76
2022/08/09 07:40:20;;;;;;;4.22;1.77;;;;;;;26.45;41.33;96948.34;5080832;28;20028;-76
2022/08/09 07:43:06;;;;;;;2.60;1.77;;;;;;;25.93;42.87;96943.91;5088164;28;20024;-76
2022/08/09 07:45:32;;;;;;;4.55;1.52;;;;;;;26.36;41.44;96937.16;5062466;28;20036;-76
2022/08/09 07:47:58;;;;;;;3.40;1.85;;;;;;;26.52;41.01;96940.94;5086375;28;20032;-76
2022/08/09 07:50:26;;;;;;;4.68;1.92;;;;;;;26.44;41.43;96944.84;5079405;28;20068;-75
2022/08/09 07:52:53;;;;;;;3.80;1.80;;;;;;;26.49;41.17;96944.13;5087320;28;20078;-76
2022/08/09 07:55:19;;;;;;;3.25;1.55;;;;;;;26.84;39.44;96949.31;5084534;28;20040;-76
2022/08/09 07:57:47;;;;;;;3.80;1.70;;;;;;;27.17;39.01;96951.22;5068094;28;20036;-76
2022/08/09 08:00:17;;;;;;;2.42;1.42;;;;;;;27.05;38.78;96950.44;5087068;28;20059;-76
2022/08/09 08:02:43;;;;;;;2.85;1.70;;;;;;;27.22;38.99;96953.16;5081917;28;20493;-76
2022/08/09 08:05:09;;;;;;;4.22;1.80;;;;;;;26.99;39.52;96954.13;5077162;28;20035;-76
2022/08/09 08:07:35;;;;;;;4.60;1.90;;;;;;;26.86;39.33;96952.59;5079670;28;20115;-76
2022/08/09 08:10:01;;;;;;;2.75;1.55;;;;;;;27.68;37.12;96953.81;5067296;28;20038;-75
2022/08/09 08:12:27;;;;;;;3.00;1.50;;;;;;;27.45;38.15;96952.13;5084968;28;20032;-76
2022/08/09 08:14:53;;;;;;;6.70;1.83;;;;;;;26.73;38.75;96959.13;5082594;28;20770;-76
2022/08/09 08:17:18;;;;;;;3.63;1.67;;;;;;;26.94;38.97;96960.28;5073982;28;20136;-75
2022/08/09 08:19:44;;;;;;;4.22;1.52;;;;;;;26.92;38.61;96956.19;5086308;28;20046;-76
2022/08/09 08:22:10;;;;;;;3.40;1.58;;;;;;;26.42;39.29;96959.63;5085315;28;20020;-76
2022/08/09 08:24:35;;;;;;;3.20;1.63;;;;;;;25.82;41.64;96966.28;5078420;28;20062;-76
2022/08/09 08:27:01;;;;;;;4.90;1.65;;;;;;;26.73;39.59;96964.53;5085793;28;20123;-76
2022/08/09 08:29:27;;;;;;;3.38;1.80;;;;;;;25.56;41.69;96971.13;5085920;28;20031;-75
2022/08/09 08:31:53;;;;;;;4.45;1.83;;;;;;;26.32;40.31;96968.34;5079740;28;20693;-76
2022/08/09 08:34:18;;;;;;;3.58;1.58;;;;;;;26.67;40.49;96956.59;5075479;28;20473;-76
2022/08/09 08:36:44;;;;;;;3.25;1.55;;;;;;;26.88;39.24;96963.94;5087099;28;20062;-75
2022/08/09 08:39:10;;;;;;;3.72;1.83;;;;;;;27.69;38.35;96963.53;5066039;28;20112;-76
2022/08/09 08:41:37;;;;;;;4.00;1.73;;;;;;;27.42;37.72;96968.84;5082028;28;20020;-75
2022/08/09 08:44:03;;;;;;;3.47;1.73;;;;;;;27.19;38.39;96967.16;5067669;28;20036;-76
2022/08/09 08:46:39;;;;;;;4.47;1.90;;;;;;;27.43;37.19;96965.91;5087688;28;20103;-76
2022/08/09 08:49:10;;;;;;;6.70;1.65;;;;;;;26.85;37.12;96972.53;5087095;28;20385;-76
2022/08/09 08:51:37;;;;;;;3.75;1.73;;;;;;;27.13;37.44;96973.53;5087571;28;20024;-75
2022/08/09 08:54:06;;;;;;;2.40;1.50;;;;;;;26.93;37.61;96969.44;5086412;28;20043;-75
2022/08/09 08:56:37;;;;;;;5.80;2.05;;;;;;;26.66;36.41;96973.81;5088533;28;20032;-75
2022/08/09 08:59:05;;;;;;;3.70;1.50;;;;;;;26.93;35.74;96969.44;5085085;28;20030;-76
2022/08/09 09:01:34;;;;;;;3.53;1.73;;;;;;;28.04;34.28;96973.19;5086715;28;20393;-76
2022/08/09 09:04:02;;;;;;;6.57;1.67;;;;;;;26.79;33.59;96973.50;5084928;28;20040;-75
2022/08/09 09:06:34;;;;;;;6.32;1.65;;;;;;;27.15;33.56;96966.84;5085739;28;20481;-76
2022/08/09 09:09:02;;;;;;;2.85;1.45;;;;;;;27.31;33.03;96976.00;5086816;28;20039;-76
2022/08/09 09:11:28;;;;;;;4.60;1.60;;;;;;;27.69;31.44;96966.22;5084314;28;20453;-76
2022/08/09 09:13:57;;;;;;;5.00;1.40;;;;;;;27.65;30.94;96978.63;5087210;28;20131;-75
2022/08/09 09:16:29;;;;;;;4.30;1.40;;;;;;;28.17;31.33;96962.81;5082523;28;20130;-76
2022/08/09 09:18:54;;;;;;;2.00;1.25;;;;;;;28.45;31.59;96966.38;5090813;28;20032;-76
2022/08/09 09:21:20;;;;;;;5.85;1.55;;;;;;;28.81;30.29;96951.28;5082420;28;20388;-76
2022/08/09 09:23:46;;;;;;;2.90;1.40;;;;;;;28.63;30.70;96957.06;5085914;28;20032;-75
2022/08/09 09:26:14;;;;;;;6.80;1.83;;;;;;;29.13;30.78;96953.97;5086557;28;20085;-76
2022/08/09 09:28:46;;;;;;;4.63;1.63;;;;;;;29.09;30.35;96960.19;5081450;28;20044;-76
2022/08/09 09:31:14;;;;;;;3.70;1.52;;;;;;;29.09;30.32;96952.88;5084961;28;20028;-76
2022/08/09 09:33:40;;;;;;;2.08;1.23;;;;;;;29.65;29.50;96949.72;5086156;28;20031;-76
2022/08/09 09:36:08;;;;;;;2.83;1.50;;;;;;;28.00;31.97;96958.53;5087170;28;20028;-76
2022/08/09 09:38:56;;;;;;;6.63;1.95;;;;;;;29.53;30.24;96957.19;5087448;28;20100;-75
2022/08/09 09:41:25;;;;;;;4.30;1.73;;;;;;;28.41;31.01;96957.13;5088332;28;20032;-75
2022/08/09 09:43:53;;;;;;;2.90;1.60;;;;;;;28.58;31.64;96952.41;5086103;28;20766;-78
2022/08/09 09:46:18;;;;;;;4.40;1.70;;;;;;;28.56;31.62;96946.44;5090557;28;20069;-76
2022/08/09 09:49:09;;;;;;;3.70;1.60;;;;;;;29.34;31.66;96946.81;5089548;28;20423;-76
2022/08/09 09:51:36;;;;;;;3.20;1.55;;;;;;;28.69;31.34;96945.19;5088921;28;20035;-76
2022/08/09 09:54:14;;;;;;;2.05;1.38;;;;;;;28.95;30.59;96934.59;5088186;28;20050;-76
2022/08/09 09:56:48;;;;;;;3.70;1.88;;;;;;;29.52;30.27;96944.72;5082573;28;20064;-76
2022/08/09 09:59:21;;;;;;;3.55;1.83;;;;;;;29.99;28.94;96935.75;5064744;28;20027;-76
2022/08/09 10:01:58;;;;;;;4.93;1.63;;;;;;;30.52;28.19;96925.59;5089986;28;20036;-75
2022/08/09 10:04:24;;;;;;;3.38;1.30;;;;;;;30.25;27.87;96918.50;5097866;28;20063;-75
2022/08/09 10:06:50;;;;;;;4.35;1.60;;;;;;;30.15;28.08;96937.44;5094284;28;20059;-76
2022/08/09 10:09:15;;;;;;;2.30;1.15;;;;;;;30.48;27.60;96929.91;5089161;28;20028;-75
2022/08/09 10:11:41;;;;;;;2.80;1.50;;;;;;;30.35;26.99;96925.84;5090015;28;20035;-74
2022/08/09 10:14:25;;;;;;;2.40;1.38;;;;;;;28.84;28.62;96929.09;5075132;28;20526;-75
2022/08/09 10:16:51;;;;;;;3.40;1.50;;;;;;;29.07;28.09;96941.47;5044717;28;20131;-75
2022/08/09 10:19:17;;;;;;;1.63;1.20;;;;;;;29.58;27.19;96944.50;5062881;28;20102;-75
2022/08/09 10:21:48;;;;;;;2.63;1.42;;;;;;;30.29;25.80;96933.16;5063230;28;20108;-76
2022/08/09 10:24:15;;;;;;;1.63;1.30;;;;;;;31.15;25.24;96928.81;5072155;28;20064;-75
2022/08/09 10:26:41;;;;;;;3.45;1.50;;;;;;;29.41;26.53;96929.47;5073828;28;20047;-76
2022/08/09 10:29:11;;;;;;;1.92;1.30;;;;;;;30.40;26.83;96925.03;5072820;28;20034;-74
2022/08/09 10:31:39;;;;;;;2.47;1.40;;;;;;;30.33;25.52;96932.59;5074308;28;20055;-76
2022/08/09 10:34:05;;;;;;;6.55;1.50;;;;;;;30.60;26.28;96927.75;5070563;28;20217;-75
2022/08/09 10:36:31;;;;;;;4.15;1.13;;;;;;;30.58;25.90;96924.47;5063549;28;20063;-76
2022/08/09 10:38:57;;;;;;;2.40;1.50;;;;;;;29.27;27.30;96938.06;5054258;28;20760;-75
2022/08/09 10:41:24;;;;;;;3.03;1.88;;;;;;;29.37;27.08;96916.47;5051005;28;20035;-75
2022/08/09 10:43:50;;;;;;;5.40;1.73;;;;;;;29.89;26.67;96928.38;5041204;28;20028;-76
2022/08/09 10:46:37;;;;;;;3.42;1.90;;;;;;;29.50;27.06;96936.03;5063368;28;20046;-76
2022/08/09 10:49:28;;;;;;;3.22;1.67;;;;;;;29.33;27.37;96920.78;5068228;28;20090;-76
2022/08/09 10:51:57;;;;;;;6.38;1.63;;;;;;;30.91;25.31;96925.06;5069021;28;20024;-75
2022/08/09 10:54:24;;;;;;;3.38;1.23;;;;;;;30.54;25.65;96929.63;5079599;28;20047;-75
2022/08/09 10:57:08;;;;;;;4.10;1.60;;;;;;;30.25;25.92;96929.34;5086258;28;20043;-76
2022/08/09 10:59:36;;;;;;;2.85;1.40;;;;;;;30.66;25.02;96926.66;5085566;28;20028;-75
2022/08/09 11:02:13;;;;;;;6.03;1.77;;;;;;;30.29;25.72;96919.56;5087679;28;20028;-76
2022/08/09 11:04:40;;;;;;;3.22;1.45;;;;;;;31.13;24.67;96917.44;5089227;28;20040;-76
2022/08/09 11:07:05;;;;;;;5.55;1.50;;;;;;;30.37;25.39;96914.69;5088837;28;20058;-75
2022/08/09 11:09:37;;;;;;;2.83;1.30;;;;;;;30.43;26.00;96916.34;5082807;28;20485;-75
2022/08/09 11:12:24;;;;;;;4.63;1.40;;;;;;;30.62;25.82;96913.91;5088304;28;20050;-75
2022/08/09 11:15:00;;;;;;;6.53;1.98;;;;;;;31.07;25.81;96904.94;5071116;28;20040;-75
2022/08/09 11:17:25;;;;;;;3.42;1.50;;;;;;;31.86;24.38;96900.66;5087479;28;20123;-76
2022/08/09 11:20:00;;;;;;;3.03;1.40;;;;;;;32.82;23.66;96905.78;5078710;28;20119;-75
2022/08/09 11:22:43;;;;;;;7.47;2.00;;;;;;;31.54;24.32;96920.09;5088960;28;20059;-75
2022/08/09 11:25:15;;;;;;;7.72;1.40;;;;;;;30.72;24.91;96909.31;5087791;28;20540;-75
2022/08/09 11:27:45;;;;;;;2.08;1.40;;;;;;;31.11;24.45;96899.78;5082866;28;20122;-75
2022/08/09 11:30:12;;;;;;;3.67;1.30;;;;;;;30.99;24.26;96906.31;5087910;28;20114;-75
2022/08/09 11:32:46;;;;;;;3.85;1.60;;;;;;;31.15;24.44;96915.25;5088762;28;20043;-76
2022/08/09 11:35:26;;;;;;;2.92;1.38;;;;;;;31.68;23.57;96917.59;5083497;28;20131;-76
2022/08/09 11:38:14;;;;;;;3.05;1.65;;;;;;;31.74;23.99;96912.94;5088734;28;20055;-75
2022/08/09 11:40:40;;;;;;;2.17;1.33;;;;;;;30.85;24.98;96907.97;5070702;28;20382;-75